Ellicott, Maryland
Current Conditions -  °F | °C
As of 2:54 PM on Saturday 20 Dec 2014 (Local Time) from KBWI Reporting Station
Broken Clouds Broken Clouds  
Wind Chill: 37°   Ceiling: 14000
Heat Index: 37°   Visibility: 10mi
Dew Point: 21°   Wind: 3mph
Humidity: 52%   Direction: 300°WNW
Pressure: 30.25"   Gusts: NA
Location:  39.2682°N, 76.8979°W
Report Text: KBWI 201954Z 30003KT 10SM FEW035 BKN140 BKN200 03/M06 A3025 RMK AO2 SLP245 T00281061
Loading
Personal Weather Stations






























Interactive Weather Map New forecast layout! Learn more

10-Day Weather Forecast

Advertisements
Track Severe Weather on mobile